createdAt,value
2019-04-11T00:01:32.549Z,5.97
2019-04-11T00:06:27.612Z,5.33
2019-04-11T00:11:31.949Z,5.53
2019-04-11T00:16:37.139Z,5.67
2019-04-11T00:21:41.605Z,5.37
2019-04-11T00:26:46.588Z,5.60
2019-04-11T00:31:50.788Z,5.60
2019-04-11T00:36:54.970Z,5.30
2019-04-11T00:41:59.175Z,5.60
2019-04-11T00:47:03.412Z,5.47
2019-04-11T00:52:08.635Z,5.80
2019-04-11T00:57:12.917Z,6.10
2019-04-11T01:02:17.735Z,5.87
2019-04-11T01:07:22.771Z,5.70
2019-04-11T01:12:27.111Z,5.43
2019-04-11T01:17:31.591Z,5.80
2019-04-11T01:22:35.813Z,5.90
2019-04-11T01:27:41.151Z,5.00
2019-04-11T01:32:46.467Z,6.13
2019-04-11T01:37:50.786Z,5.83
2019-04-11T01:42:55.528Z,4.60
2019-04-11T01:48:15.364Z,5.27
2019-04-11T01:53:19.630Z,5.13
2019-04-11T01:58:24.621Z,5.07
2019-04-11T02:03:39.315Z,5.27
2019-04-11T02:08:43.860Z,5.17
2019-04-11T02:13:48.259Z,5.23
2019-04-11T02:18:52.480Z,5.33
2019-04-11T02:24:02.304Z,4.77
2019-04-11T02:29:06.891Z,5.27
2019-04-11T02:34:11.850Z,4.80
2019-04-11T02:39:19.606Z,5.30
2019-04-11T02:44:49.642Z,5.03
2019-04-11T02:49:30.946Z,4.67
2019-04-11T02:54:36.615Z,4.43
2019-04-11T02:59:44.459Z,4.87
2019-04-11T03:04:48.175Z,5.00
2019-04-11T03:09:53.549Z,5.30
2019-04-11T03:15:16.121Z,5.03
2019-04-11T03:20:15.458Z,4.83
2019-04-11T03:25:11.705Z,5.10
2019-04-11T03:30:24.937Z,5.30
2019-04-11T03:40:48.132Z,5.23
2019-04-11T03:45:56.286Z,4.90
2019-04-11T03:50:42.467Z,4.80
2019-04-11T03:55:47.499Z,5.40
2019-04-11T04:00:53.618Z,5.03
2019-04-11T04:05:59.945Z,5.50
2019-04-11T04:11:19.021Z,5.33
2019-04-11T04:16:40.347Z,5.33
2019-04-11T04:21:47.099Z,5.10
2019-04-11T04:26:52.609Z,5.63
2019-04-11T04:31:59.365Z,5.20
2019-04-11T04:37:05.730Z,5.67
2019-04-11T04:42:21.168Z,5.50
2019-04-11T04:47:23.676Z,5.33
2019-04-11T04:52:22.297Z,5.50
2019-04-11T04:57:26.851Z,5.10
2019-04-11T05:02:32.764Z,6.00
2019-04-11T05:07:40.414Z,5.93
2019-04-11T05:12:43.981Z,6.20
2019-04-11T05:17:49.168Z,5.90
2019-04-11T05:22:53.651Z,5.03
2019-04-11T05:27:58.177Z,5.33
2019-04-11T05:33:02.413Z,5.63
2019-04-11T05:38:06.613Z,4.87
2019-04-11T05:43:11.460Z,5.33
2019-04-11T05:48:34.836Z,5.97
2019-04-11T05:53:39.032Z,5.40
2019-04-11T05:58:45.724Z,6.10
2019-04-11T06:03:50.938Z,10.70
2019-04-11T06:09:00.612Z,6.57
2019-04-11T06:14:15.456Z,5.87
2019-04-11T06:19:54.039Z,6.43
2019-04-11T06:25:19.290Z,5.90
2019-04-11T06:30:42.355Z,6.30
2019-04-11T06:36:21.051Z,5.97
2019-04-11T06:41:46.989Z,6.73
2019-04-11T06:47:16.696Z,5.60
2019-04-11T06:52:21.032Z,6.07
2019-04-11T06:57:27.074Z,8.93
2019-04-11T07:02:32.215Z,5.60
2019-04-11T07:07:37.675Z,6.20
2019-04-11T07:12:47.158Z,6.17
2019-04-11T07:18:09.856Z,6.23
2019-04-11T07:23:32.918Z,5.57
2019-04-11T07:28:54.945Z,5.30
2019-04-11T07:34:31.451Z,5.83
2019-04-11T07:39:56.219Z,5.43
2019-04-11T07:45:04.232Z,5.13
2019-04-11T07:50:10.015Z,5.73
2019-04-11T07:55:14.305Z,5.20
2019-04-11T08:00:44.250Z,5.53
2019-04-11T08:06:17.437Z,5.63
2019-04-11T08:11:36.027Z,4.63
2019-04-11T08:17:28.187Z,5.20
2019-04-11T08:22:33.079Z,4.30
2019-04-11T08:27:55.949Z,4.90
2019-04-11T08:32:55.269Z,3.70
2019-04-11T08:38:02.798Z,3.03
2019-04-11T08:43:09.281Z,4.03
2019-04-11T08:48:13.521Z,2.73
2019-04-11T08:53:35.091Z,2.20
2019-04-11T08:58:57.278Z,2.10
2019-04-11T09:04:32.642Z,1.90
2019-04-11T09:10:04.678Z,1.73
2019-04-11T09:15:28.695Z,1.87
2019-04-11T09:20:55.943Z,1.63
2019-04-11T09:26:20.207Z,1.97
2019-04-11T09:31:42.217Z,1.83
2019-04-11T09:37:05.703Z,1.97
2019-04-11T09:42:28.855Z,2.00
2019-04-11T09:47:51.922Z,2.37
2019-04-11T09:52:56.419Z,1.40
2019-04-11T09:58:01.368Z,1.73
2019-04-11T10:03:25.608Z,1.70
2019-04-11T10:08:49.245Z,1.60
2019-04-11T10:14:09.139Z,1.90
2019-04-11T10:19:31.736Z,1.70
2019-04-11T10:24:55.023Z,1.70
2019-04-11T10:30:17.397Z,2.30
2019-04-11T10:35:40.681Z,2.00
2019-04-11T10:41:13.049Z,1.63
2019-04-11T10:46:36.213Z,1.67
2019-04-11T10:51:50.018Z,1.60
2019-04-11T10:57:16.281Z,1.60
2019-04-11T11:02:37.740Z,2.40
2019-04-11T11:07:44.605Z,1.33
2019-04-11T11:13:18.020Z,1.40
2019-04-11T11:19:15.586Z,1.20
2019-04-11T11:24:09.281Z,1.60
2019-04-11T11:29:45.706Z,1.80
2019-04-11T11:34:57.223Z,2.03
2019-04-11T11:40:38.297Z,2.40
2019-04-11T11:46:01.146Z,2.20
2019-04-11T11:51:10.906Z,3.47
2019-04-11T11:56:15.901Z,3.57
2019-04-11T12:01:20.176Z,2.90
2019-04-11T12:06:25.192Z,2.73
2019-04-11T12:11:30.342Z,3.00
2019-04-11T12:17:03.292Z,3.20
2019-04-11T12:22:06.219Z,3.17
2019-04-11T12:27:29.448Z,3.47
2019-04-11T12:32:34.747Z,3.70
2019-04-11T12:37:43.855Z,3.00
2019-04-11T12:42:48.020Z,2.10
2019-04-11T12:47:55.347Z,2.00
2019-04-11T12:53:10.349Z,1.70
2019-04-11T12:58:33.522Z,2.60
2019-04-11T13:03:55.721Z,1.77
2019-04-11T13:09:16.990Z,1.53
2019-04-11T13:14:38.862Z,1.87
2019-04-11T13:20:11.327Z,1.80
2019-04-11T13:25:33.691Z,1.83
2019-04-11T13:30:57.707Z,2.30
2019-04-11T13:36:23.643Z,1.83
2019-04-11T13:41:59.026Z,2.00
2019-04-11T13:47:11.225Z,2.20
2019-04-11T13:52:34.374Z,2.13
2019-04-11T13:57:57.569Z,2.10
2019-04-11T14:03:18.868Z,6.23
2019-04-11T14:08:27.379Z,7.30
2019-04-11T14:13:38.976Z,4.03
2019-04-11T14:19:07.044Z,1.85
2019-04-11T14:24:24.262Z,1.50
2019-04-11T14:29:59.538Z,2.10
2019-04-11T14:35:22.757Z,2.20
2019-04-11T14:40:33.534Z,2.00
2019-04-11T14:45:55.738Z,2.47
2019-04-11T14:51:15.989Z,1.97
2019-04-11T14:56:21.804Z,2.60
2019-04-11T15:01:27.923Z,2.13
2019-04-11T15:06:34.535Z,2.40
2019-04-11T15:11:53.014Z,3.60
2019-04-11T15:17:10.682Z,2.90
2019-04-11T15:22:24.339Z,2.70
2019-04-11T15:28:07.976Z,2.80
2019-04-11T15:33:30.903Z,2.50
2019-04-11T15:38:47.877Z,3.17
2019-04-11T15:44:11.715Z,2.60
2019-04-11T15:49:33.975Z,2.70
2019-04-11T15:54:57.141Z,4.03
2019-04-11T16:00:29.457Z,3.20
2019-04-11T16:05:52.614Z,3.30
2019-04-11T16:11:14.515Z,3.00
2019-04-11T16:16:20.350Z,2.87
2019-04-11T16:21:32.836Z,2.43
2019-04-11T16:26:50.396Z,3.13
2019-04-11T16:31:55.836Z,2.30
2019-04-11T16:37:02.867Z,2.83
2019-04-11T16:42:10.086Z,2.03
2019-04-11T16:47:31.535Z,2.70
2019-04-11T16:52:38.582Z,2.17
2019-04-11T16:57:44.259Z,2.07
2019-04-11T17:02:49.246Z,2.50
2019-04-11T17:08:15.161Z,1.90
2019-04-11T17:13:19.394Z,2.00
2019-04-11T17:18:23.635Z,2.20
2019-04-11T17:23:27.863Z,2.33
2019-04-11T17:28:32.182Z,2.73
2019-04-11T17:33:36.375Z,3.30
2019-04-11T17:38:40.605Z,5.57
2019-04-11T17:43:47.040Z,6.00
2019-04-11T17:48:50.738Z,6.07
2019-04-11T17:53:55.654Z,7.47
2019-04-11T17:59:00.158Z,7.13
2019-04-11T18:04:04.792Z,7.50
2019-04-11T18:09:12.086Z,7.07
2019-04-11T18:14:16.308Z,6.77
2019-04-11T18:19:20.585Z,6.50
2019-04-11T18:24:24.839Z,5.63
2019-04-11T18:29:29.146Z,6.43
2019-04-11T18:34:34.384Z,5.70
2019-04-11T18:39:38.897Z,6.37
2019-04-11T18:44:43.159Z,5.43
2019-04-11T18:49:47.397Z,5.97
2019-04-11T18:54:51.690Z,5.27
2019-04-11T18:59:55.977Z,5.47
2019-04-11T19:05:02.101Z,6.63
2019-04-11T19:10:07.894Z,5.60
2019-04-11T19:15:13.801Z,5.43
2019-04-11T19:20:19.797Z,5.63
2019-04-11T19:25:24.658Z,5.13
2019-04-11T19:30:29.114Z,6.00
2019-04-11T19:35:33.978Z,5.37
2019-04-11T19:40:38.627Z,5.57
2019-04-11T19:45:43.371Z,5.37
2019-04-11T19:50:47.846Z,5.30
2019-04-11T19:56:11.037Z,5.70
2019-04-11T20:01:15.374Z,5.47
2019-04-11T20:06:19.594Z,5.90
2019-04-11T20:11:23.841Z,5.60
2019-04-11T20:16:28.051Z,6.13
2019-04-11T20:21:32.272Z,5.77
2019-04-11T20:26:36.499Z,5.50
2019-04-11T20:31:40.848Z,5.70
2019-04-11T20:36:45.115Z,6.43
2019-04-11T20:41:53.242Z,6.23
2019-04-11T20:46:55.384Z,6.20
2019-04-11T20:51:59.597Z,6.10
2019-04-11T20:57:03.817Z,6.90
2019-04-11T21:02:08.106Z,7.57
2019-04-11T21:07:12.356Z,6.23
2019-04-11T21:12:18.189Z,5.80
2019-04-11T21:17:22.398Z,5.60
2019-04-11T21:22:26.610Z,5.80
2019-04-11T21:27:30.836Z,5.80
2019-04-11T21:32:35.036Z,5.83
2019-04-11T21:37:39.243Z,5.77
2019-04-11T21:42:43.441Z,5.50
2019-04-11T21:47:47.635Z,5.23
2019-04-11T21:52:51.854Z,5.07
2019-04-11T21:57:56.086Z,5.30
2019-04-11T22:03:00.279Z,4.50
2019-04-11T22:08:04.469Z,4.80
2019-04-11T22:13:10.093Z,5.00
2019-04-11T22:18:16.724Z,5.27
2019-04-11T22:23:20.606Z,5.03
2019-04-11T22:28:25.150Z,4.43
2019-04-11T22:33:42.708Z,5.03
2019-04-11T22:38:46.906Z,4.97
2019-04-11T22:43:51.109Z,5.17
2019-04-11T22:48:55.294Z,5.17
2019-04-11T22:54:00.575Z,4.90
2019-04-11T22:59:05.050Z,4.83
2019-04-11T23:04:09.251Z,4.77
2019-04-11T23:09:13.489Z,5.83
2019-04-11T23:14:17.686Z,5.20
2019-04-11T23:19:21.899Z,5.23
2019-04-11T23:24:26.075Z,6.33
2019-04-11T23:29:30.273Z,6.03
2019-04-11T23:34:34.489Z,6.20
2019-04-11T23:39:38.668Z,5.80
2019-04-11T23:44:42.881Z,5.30
2019-04-11T23:49:47.093Z,6.43
2019-04-11T23:54:51.319Z,6.20
2019-04-11T23:59:55.498Z,5.23
